createdAt,value
2018-11-27T00:00:12.837Z,14.07
2018-11-27T00:02:41.318Z,13.73
2018-11-27T00:05:10.375Z,15.17
2018-11-27T00:07:38.842Z,14.90
2018-11-27T00:10:09.088Z,14.70
2018-11-27T00:12:37.917Z,15.43
2018-11-27T00:15:09.640Z,14.77
2018-11-27T00:17:38.217Z,16.77
2018-11-27T00:20:10.876Z,15.70
2018-11-27T00:22:39.841Z,15.10
2018-11-27T00:25:13.344Z,15.33
2018-11-27T00:27:41.870Z,15.43
2018-11-27T00:30:15.592Z,15.43
2018-11-27T00:32:44.011Z,14.53
2018-11-27T00:35:13.585Z,14.60
2018-11-27T00:37:42.054Z,15.60
2018-11-27T00:40:16.997Z,15.43
2018-11-27T00:42:45.496Z,14.20
2018-11-27T00:45:15.380Z,15.80
2018-11-27T00:47:44.479Z,15.30
2018-11-27T00:50:14.475Z,15.60
2018-11-27T00:52:42.998Z,14.63
2018-11-27T00:55:13.820Z,13.90
2018-11-27T00:57:42.923Z,13.87
2018-11-27T01:00:15.317Z,14.80
2018-11-27T01:02:43.797Z,14.13
2018-11-27T01:05:16.182Z,13.43
2018-11-27T01:07:44.754Z,13.80
2018-11-27T01:10:17.299Z,14.50
2018-11-27T01:12:45.734Z,14.27
2018-11-27T01:15:14.982Z,14.13
2018-11-27T01:17:45.858Z,14.23
2018-11-27T01:20:18.255Z,14.53
2018-11-27T01:22:46.832Z,14.37
2018-11-27T01:25:15.331Z,15.10
2018-11-27T01:27:43.906Z,14.90
2018-11-27T01:30:17.823Z,15.07
2018-11-27T01:32:46.444Z,14.80
2018-11-27T01:35:17.894Z,15.00
2018-11-27T01:37:46.996Z,14.97
2018-11-27T01:40:17.230Z,14.80
2018-11-27T01:42:46.543Z,13.97
2018-11-27T01:45:16.603Z,14.43
2018-11-27T01:47:45.090Z,13.53
2018-11-27T01:50:14.329Z,14.17
2018-11-27T01:52:42.810Z,13.17
2018-11-27T01:55:13.638Z,13.03
2018-11-27T01:57:42.056Z,14.07
2018-11-27T02:00:16.654Z,14.10
2018-11-27T02:02:45.054Z,12.77
2018-11-27T02:05:13.569Z,14.30
2018-11-27T02:07:42.014Z,14.10
2018-11-27T02:10:11.693Z,14.13
2018-11-27T02:12:41.281Z,13.60
2018-11-27T02:15:13.093Z,13.90
2018-11-27T02:17:41.552Z,13.23
2018-11-27T02:20:11.271Z,14.50
2018-11-27T02:22:40.558Z,14.80
2018-11-27T02:25:19.446Z,14.27
2018-11-27T02:27:47.859Z,14.77
2018-11-27T02:30:17.520Z,14.57
2018-11-27T02:32:46.031Z,15.57
2018-11-27T02:35:22.083Z,15.27
2018-11-27T02:37:53.404Z,15.60
2018-11-27T02:40:22.266Z,15.67
2018-11-27T02:42:50.775Z,14.73
2018-11-27T02:45:20.369Z,14.73
2018-11-27T02:47:49.833Z,16.23
2018-11-27T02:50:20.304Z,15.73
2018-11-27T02:52:48.800Z,16.23
2018-11-27T02:55:20.724Z,16.70
2018-11-27T02:57:49.264Z,16.33
2018-11-27T03:00:21.713Z,15.77
2018-11-27T03:02:50.149Z,15.80
2018-11-27T03:05:22.457Z,15.67
2018-11-27T03:07:50.918Z,16.07
2018-11-27T03:10:19.759Z,15.93
2018-11-27T03:12:48.226Z,15.30
2018-11-27T03:15:17.899Z,16.87
2018-11-27T03:17:46.407Z,15.10
2018-11-27T03:20:16.221Z,15.20
2018-11-27T03:22:44.744Z,15.77
2018-11-27T03:25:14.438Z,15.67
2018-11-27T03:27:43.428Z,15.20
2018-11-27T03:30:14.232Z,14.27
2018-11-27T03:32:43.036Z,15.43
2018-11-27T03:35:19.059Z,14.87
2018-11-27T03:37:48.391Z,14.17
2018-11-27T03:40:19.096Z,14.80
2018-11-27T03:42:47.492Z,14.47
2018-11-27T03:45:16.765Z,15.00
2018-11-27T03:47:45.347Z,15.13
2018-11-27T03:50:17.863Z,14.20
2018-11-27T03:52:46.747Z,14.30
2018-11-27T03:55:15.291Z,14.40
2018-11-27T03:57:43.729Z,14.10
2018-11-27T04:00:31.401Z,13.73
2018-11-27T04:03:01.862Z,14.17
2018-11-27T04:05:30.411Z,13.53
2018-11-27T04:07:58.876Z,13.47
2018-11-27T04:10:27.447Z,13.20
2018-11-27T04:12:55.945Z,14.17
2018-11-27T04:15:24.540Z,13.40
2018-11-27T04:17:53.132Z,13.90
2018-11-27T04:20:21.674Z,14.33
2018-11-27T04:22:50.235Z,12.90
2018-11-27T04:25:19.184Z,13.90
2018-11-27T04:27:48.254Z,13.50
2018-11-27T04:30:18.983Z,13.27
2018-11-27T04:32:47.483Z,13.83
2018-11-27T04:35:18.353Z,13.07
2018-11-27T04:37:47.363Z,13.37
2018-11-27T04:40:16.874Z,12.70
2018-11-27T04:42:45.428Z,12.57
2018-11-27T04:45:26.500Z,12.00
2018-11-27T04:47:55.004Z,12.30
2018-11-27T04:50:23.561Z,12.17
2018-11-27T04:52:52.181Z,11.50
2018-11-27T04:55:21.746Z,12.23
2018-11-27T04:57:52.483Z,11.67
2018-11-27T05:00:22.377Z,12.13
2018-11-27T05:02:50.938Z,11.63
2018-11-27T05:05:19.520Z,11.23
2018-11-27T05:07:48.387Z,12.40
2018-11-27T05:10:19.599Z,13.33
2018-11-27T05:12:48.148Z,12.90
2018-11-27T05:15:18.539Z,13.50
2018-11-27T05:17:48.450Z,13.10
2018-11-27T05:20:17.291Z,12.77
2018-11-27T05:22:45.721Z,12.93
2018-11-27T05:25:15.643Z,12.53
2018-11-27T05:27:45.418Z,13.20
2018-11-27T05:30:15.245Z,12.70
2018-11-27T05:32:43.729Z,13.20
2018-11-27T05:35:13.919Z,12.73
2018-11-27T05:37:43.257Z,13.13
2018-11-27T05:40:14.302Z,13.17
2018-11-27T05:42:42.862Z,13.23
2018-11-27T05:45:14.298Z,13.27
2018-11-27T05:47:42.814Z,13.97
2018-11-27T05:50:13.339Z,12.07
2018-11-27T05:52:41.835Z,13.53
2018-11-27T05:55:11.395Z,11.93
2018-11-27T05:57:40.178Z,12.23
2018-11-27T06:00:16.073Z,12.07
2018-11-27T06:02:44.679Z,12.73
2018-11-27T06:05:17.262Z,11.47
2018-11-27T06:07:45.782Z,12.83
2018-11-27T06:10:16.357Z,12.20
2018-11-27T06:12:44.869Z,12.60
2018-11-27T06:15:15.564Z,12.50
2018-11-27T06:17:44.257Z,11.70
2018-11-27T06:20:14.171Z,12.20
2018-11-27T06:22:42.673Z,12.17
2018-11-27T06:25:14.955Z,12.93
2018-11-27T06:27:43.435Z,12.67
2018-11-27T06:30:17.424Z,13.03
2018-11-27T06:32:45.934Z,12.07
2018-11-27T06:35:15.965Z,12.70
2018-11-27T06:37:44.473Z,11.73
2018-11-27T06:40:14.587Z,11.50
2018-11-27T06:42:43.110Z,11.93
2018-11-27T06:45:15.604Z,10.67
2018-11-27T06:47:45.288Z,10.60
2018-11-27T06:50:15.282Z,10.53
2018-11-27T06:52:43.988Z,9.07
2018-11-27T06:55:13.584Z,9.53
2018-11-27T06:57:42.142Z,9.07
2018-11-27T07:00:15.086Z,8.47
2018-11-27T07:02:43.593Z,8.67
2018-11-27T07:05:13.290Z,8.53
2018-11-27T07:07:42.119Z,8.47
2018-11-27T07:10:16.208Z,8.70
2018-11-27T07:12:44.669Z,8.40
2018-11-27T07:15:14.860Z,8.23
2018-11-27T07:17:43.650Z,7.97
2018-11-27T07:20:12.931Z,7.23
2018-11-27T07:22:41.921Z,8.07
2018-11-27T07:25:12.306Z,7.13
2018-11-27T07:27:41.915Z,6.77
2018-11-27T07:30:13.456Z,7.20
2018-11-27T07:32:41.927Z,7.13
2018-11-27T07:35:11.802Z,6.67
2018-11-27T07:37:40.286Z,7.47
2018-11-27T07:40:10.759Z,7.77
2018-11-27T07:42:39.245Z,7.60
2018-11-27T07:45:14.631Z,7.63
2018-11-27T07:47:43.172Z,7.60
2018-11-27T07:50:12.342Z,7.90
2018-11-27T07:52:40.931Z,8.03
2018-11-27T07:55:10.929Z,8.10
2018-11-27T07:57:39.780Z,7.63
2018-11-27T08:00:13.419Z,8.90
2018-11-27T08:02:42.432Z,9.00
2018-11-27T08:05:13.187Z,9.10
2018-11-27T08:07:42.795Z,9.20
2018-11-27T08:10:12.900Z,9.23
2018-11-27T08:13:12.739Z,9.10
2018-11-27T08:15:41.212Z,8.37
2018-11-27T08:18:10.662Z,10.20
2018-11-27T08:20:39.152Z,9.80
2018-11-27T08:23:08.844Z,9.93
2018-11-27T08:25:37.333Z,10.00
2018-11-27T08:28:07.460Z,10.00
2018-11-27T08:30:36.045Z,9.87
2018-11-27T08:33:04.904Z,10.00
2018-11-27T08:35:33.402Z,10.07
2018-11-27T08:38:01.884Z,10.27
2018-11-27T08:40:31.817Z,9.30
2018-11-27T08:43:00.370Z,9.87
2018-11-27T08:45:28.860Z,9.47
2018-11-27T08:47:57.345Z,9.00
2018-11-27T08:50:27.597Z,8.50
2018-11-27T08:53:00.489Z,8.17
2018-11-27T08:55:31.577Z,9.00
2018-11-27T08:58:00.872Z,9.50
2018-11-27T09:00:29.423Z,10.00
2018-11-27T09:02:58.194Z,9.20
2018-11-27T09:05:26.746Z,8.80
2018-11-27T09:07:55.341Z,8.93
2018-11-27T09:10:25.091Z,8.80
2018-11-27T09:12:53.690Z,9.27
2018-11-27T09:15:23.334Z,9.27
2018-11-27T09:18:01.620Z,8.77
2018-11-27T09:20:30.119Z,9.00
2018-11-27T09:22:59.485Z,8.60
2018-11-27T09:25:28.006Z,9.27
2018-11-27T09:27:56.449Z,9.67
2018-11-27T09:30:26.536Z,9.07
2018-11-27T09:32:56.256Z,9.50
2018-11-27T09:35:25.153Z,9.63
2018-11-27T09:37:53.644Z,9.53
2018-11-27T09:40:22.452Z,9.70
2018-11-27T09:42:50.868Z,9.97
2018-11-27T09:45:22.350Z,9.47
2018-11-27T09:47:52.891Z,9.10
2018-11-27T09:50:21.789Z,9.27
2018-11-27T09:52:50.971Z,9.83
2018-11-27T09:55:23.793Z,9.53
2018-11-27T09:57:52.240Z,8.30
2018-11-27T10:00:23.916Z,8.67
2018-11-27T10:02:53.679Z,8.60
2018-11-27T10:05:22.215Z,9.73
2018-11-27T10:07:50.744Z,8.73
2018-11-27T10:10:22.214Z,8.13
2018-11-27T10:12:50.855Z,9.00
2018-11-27T10:15:27.913Z,9.20
2018-11-27T10:17:59.507Z,8.67
2018-11-27T10:20:30.695Z,9.00
2018-11-27T10:22:59.212Z,8.43
2018-11-27T10:25:27.691Z,8.23
2018-11-27T10:27:56.106Z,7.90
2018-11-27T10:30:25.716Z,8.27
2018-11-27T10:32:55.383Z,8.93
2018-11-27T10:35:32.881Z,8.47
2018-11-27T10:38:01.357Z,8.83
2018-11-27T10:40:29.832Z,9.20
2018-11-27T10:42:58.314Z,8.83
2018-11-27T10:45:26.810Z,8.77
2018-11-27T10:47:56.125Z,9.17
2018-11-27T10:50:24.760Z,8.87
2018-11-27T10:52:54.389Z,8.87
2018-11-27T10:55:23.421Z,7.97
2018-11-27T10:57:51.980Z,8.63
2018-11-27T11:00:29.576Z,7.83
2018-11-27T11:03:02.673Z,9.13
2018-11-27T11:05:34.225Z,9.87
2018-11-27T11:08:04.790Z,10.43
2018-11-27T11:10:33.640Z,10.87
2018-11-27T11:13:02.108Z,9.93
2018-11-27T11:15:30.534Z,9.90
2018-11-27T11:17:58.997Z,10.27
2018-11-27T11:20:27.461Z,9.93
2018-11-27T11:22:55.911Z,9.77
2018-11-27T11:25:25.066Z,9.63
2018-11-27T11:27:56.983Z,10.47
2018-11-27T11:30:25.612Z,9.93
2018-11-27T11:32:54.259Z,9.70
2018-11-27T11:35:22.780Z,9.30
2018-11-27T11:37:51.661Z,9.77
2018-11-27T11:40:21.592Z,10.20
2018-11-27T11:42:51.402Z,9.67
2018-11-27T11:45:19.886Z,10.67
2018-11-27T11:47:48.786Z,10.77
2018-11-27T11:50:20.519Z,9.50
2018-11-27T11:52:52.316Z,10.07
2018-11-27T11:55:20.834Z,10.53
2018-11-27T11:57:49.348Z,10.47
2018-11-27T12:00:20.452Z,8.70
2018-11-27T12:02:49.223Z,9.77
2018-11-27T12:05:17.765Z,9.73
2018-11-27T12:07:46.608Z,10.93
2018-11-27T12:10:16.251Z,10.50
2018-11-27T12:12:46.049Z,10.00
2018-11-27T12:15:17.310Z,10.87
2018-11-27T12:17:46.446Z,9.87
2018-11-27T12:20:16.024Z,10.70
2018-11-27T12:22:47.123Z,11.37
2018-11-27T12:25:15.647Z,10.63
2018-11-27T12:27:44.189Z,9.93
2018-11-27T12:30:14.651Z,9.93
2018-11-27T12:32:43.231Z,10.90
2018-11-27T12:35:12.656Z,10.93
2018-11-27T12:37:41.247Z,11.73
2018-11-27T12:40:16.831Z,10.17
2018-11-27T12:42:45.322Z,9.83
2018-11-27T12:45:15.971Z,10.43
2018-11-27T12:47:44.523Z,10.90
2018-11-27T12:50:18.123Z,10.50
2018-11-27T12:52:46.607Z,9.90
2018-11-27T12:55:16.445Z,10.13
2018-11-27T12:57:45.028Z,9.40
2018-11-27T13:00:17.776Z,9.20
2018-11-27T13:02:46.711Z,9.97
2018-11-27T13:05:18.495Z,9.73
2018-11-27T13:07:46.999Z,9.20
2018-11-27T13:10:16.617Z,9.57
2018-11-27T13:12:46.045Z,10.00
2018-11-27T13:15:18.709Z,9.50
2018-11-27T13:17:48.267Z,9.27
2018-11-27T13:20:17.647Z,9.67
2018-11-27T13:22:46.472Z,8.50
2018-11-27T13:25:16.260Z,11.03
2018-11-27T13:27:44.677Z,10.20
2018-11-27T13:30:17.583Z,9.70
2018-11-27T13:32:48.018Z,9.90
2018-11-27T13:35:16.612Z,10.43
2018-11-27T13:37:45.191Z,9.93
2018-11-27T13:40:14.176Z,9.40
2018-11-27T13:42:42.741Z,10.77
2018-11-27T13:45:12.776Z,9.47
2018-11-27T13:47:41.707Z,10.50
2018-11-27T13:50:14.457Z,11.33
2018-11-27T13:52:43.008Z,12.07
2018-11-27T13:55:12.978Z,11.67
2018-11-27T13:57:41.491Z,10.73
2018-11-27T14:00:12.375Z,11.07
2018-11-27T14:02:41.331Z,11.07
2018-11-27T14:05:13.407Z,10.63
2018-11-27T14:07:42.014Z,10.43
2018-11-27T14:10:11.345Z,10.20
2018-11-27T14:12:39.781Z,10.47
2018-11-27T14:15:22.730Z,10.73
2018-11-27T14:17:52.381Z,9.97
2018-11-27T14:20:20.913Z,10.30
2018-11-27T14:22:50.528Z,9.87
2018-11-27T14:25:19.096Z,10.90
2018-11-27T14:27:49.267Z,9.30
2018-11-27T14:30:18.983Z,11.20
2018-11-27T14:32:47.655Z,11.03
2018-11-27T14:35:17.160Z,9.47
2018-11-27T14:37:46.821Z,10.40
2018-11-27T14:40:23.942Z,10.67
2018-11-27T14:42:52.741Z,9.87
2018-11-27T14:45:22.649Z,9.70
2018-11-27T14:47:55.328Z,9.90
2018-11-27T14:50:23.821Z,9.60
2018-11-27T14:52:52.384Z,9.60
2018-11-27T14:55:28.781Z,9.27
2018-11-27T14:57:57.660Z,10.17
2018-11-27T15:00:26.802Z,10.00
2018-11-27T15:02:55.790Z,9.33
2018-11-27T15:05:27.649Z,10.10
2018-11-27T15:07:56.099Z,9.73
2018-11-27T15:10:24.579Z,9.77
2018-11-27T15:12:53.348Z,10.03
2018-11-27T15:15:21.848Z,10.03
2018-11-27T15:17:50.340Z,9.73
2018-11-27T15:20:19.764Z,9.37
2018-11-27T15:22:48.623Z,9.13
2018-11-27T15:25:17.567Z,9.13
2018-11-27T15:27:46.181Z,9.23
2018-11-27T15:31:32.424Z,8.73
2018-11-27T15:34:00.924Z,9.00
2018-11-27T15:36:29.404Z,9.33
2018-11-27T15:38:57.808Z,9.57
2018-11-27T15:41:26.299Z,8.57
2018-11-27T15:43:54.722Z,8.83
2018-11-27T15:46:23.212Z,9.90
2018-11-27T15:48:51.669Z,8.97
2018-11-27T15:51:20.125Z,9.40
2018-11-27T15:53:48.595Z,8.57
2018-11-27T15:56:17.054Z,10.00
2018-11-27T15:58:45.568Z,9.27
2018-11-27T16:01:14.030Z,9.17
2018-11-27T16:03:42.430Z,9.63
2018-11-27T16:06:11.005Z,9.43
2018-11-27T16:08:39.651Z,9.10
2018-11-27T16:11:08.171Z,9.50
2018-11-27T16:13:36.554Z,9.93
2018-11-27T16:16:05.041Z,9.57
2018-11-27T16:18:33.515Z,9.50
2018-11-27T16:21:02.000Z,9.40
2018-11-27T16:23:30.449Z,9.33
2018-11-27T16:25:58.892Z,9.83
2018-11-27T16:28:27.412Z,9.87
2018-11-27T16:30:55.881Z,10.10
2018-11-27T16:33:24.986Z,9.23
2018-11-27T16:35:53.476Z,10.13
2018-11-27T16:38:21.943Z,10.43
2018-11-27T16:40:50.496Z,10.30
2018-11-27T16:43:18.978Z,10.70
2018-11-27T16:45:47.496Z,10.00
2018-11-27T16:48:15.949Z,10.60
2018-11-27T16:50:44.568Z,10.80
2018-11-27T16:53:12.991Z,10.57
2018-11-27T16:55:41.443Z,10.77
2018-11-27T16:58:09.918Z,10.40
2018-11-27T17:00:38.365Z,10.03
2018-11-27T17:03:08.009Z,9.57
2018-11-27T17:05:38.130Z,10.73
2018-11-27T17:08:06.724Z,10.60
2018-11-27T17:10:35.196Z,9.97
2018-11-27T17:13:05.488Z,10.63
2018-11-27T17:15:33.975Z,10.60
2018-11-27T17:18:02.343Z,10.53
2018-11-27T17:20:32.214Z,10.20
2018-11-27T17:23:01.840Z,10.27
2018-11-27T17:28:12.652Z,10.37
2018-11-27T17:30:46.075Z,10.90
2018-11-27T17:33:25.479Z,10.50
2018-11-27T17:35:53.960Z,10.03
2018-11-27T17:38:22.491Z,9.87
2018-11-27T17:40:51.517Z,10.00
2018-11-27T17:43:20.100Z,9.83
2018-11-27T17:45:48.899Z,10.67
2018-11-27T17:48:17.393Z,10.30
2018-11-27T17:50:45.969Z,10.13
2018-11-27T17:53:14.505Z,9.67
2018-11-27T17:55:44.152Z,9.83
2018-11-27T17:58:12.622Z,10.10
2018-11-27T18:00:41.307Z,10.60
2018-11-27T18:03:10.792Z,10.20
2018-11-27T18:05:39.458Z,10.60
2018-11-27T18:08:08.060Z,11.03
2018-11-27T18:10:36.953Z,10.70
2018-11-27T18:13:06.884Z,10.10
2018-11-27T18:15:36.577Z,10.70
2018-11-27T18:18:05.552Z,11.37
2018-11-27T18:20:34.162Z,10.20
2018-11-27T18:23:02.704Z,15.77
2018-11-27T18:25:31.267Z,13.40
2018-11-27T18:27:59.847Z,16.03
2018-11-27T18:30:28.556Z,13.70
2018-11-27T18:32:57.124Z,12.80
2018-11-27T18:35:26.166Z,11.90
2018-11-27T18:37:54.858Z,11.67
2018-11-27T18:40:23.751Z,11.03
2018-11-27T18:42:52.437Z,10.80
2018-11-27T18:45:29.834Z,10.30
2018-11-27T18:47:58.391Z,9.87
2018-11-27T18:50:29.414Z,10.17
2018-11-27T18:52:57.796Z,9.70
2018-11-27T18:55:26.253Z,9.60
2018-11-27T18:57:54.692Z,9.77
2018-11-27T19:00:24.223Z,9.47
2018-11-27T19:02:52.874Z,10.47
2018-11-27T19:05:21.699Z,9.97
2018-11-27T19:07:50.174Z,10.00
2018-11-27T19:10:21.620Z,9.53
2018-11-27T19:12:50.208Z,10.60
2018-11-27T19:15:53.627Z,10.67
2018-11-27T19:18:24.361Z,10.57
2018-11-27T19:20:52.946Z,9.90
2018-11-27T19:23:23.004Z,10.10
2018-11-27T19:25:51.413Z,10.90
2018-11-27T19:28:19.850Z,10.93
2018-11-27T19:30:48.574Z,10.03
2018-11-27T19:33:17.043Z,10.50
2018-11-27T19:35:45.506Z,9.63
2018-11-27T19:38:15.681Z,9.93
2018-11-27T19:40:44.099Z,10.53
2018-11-27T19:43:12.554Z,10.10
2018-11-27T19:45:41.767Z,10.10
2018-11-27T19:48:11.118Z,10.83
2018-11-27T19:50:39.581Z,10.40
2018-11-27T19:53:12.144Z,9.90
2018-11-27T19:55:38.360Z,9.90
2018-11-27T19:58:07.838Z,10.23
2018-11-27T20:00:37.276Z,10.50
2018-11-27T20:03:07.403Z,10.80
2018-11-27T20:05:35.890Z,10.70
2018-11-27T20:08:04.801Z,11.57
2018-11-27T20:10:33.346Z,11.53
2018-11-27T20:13:01.864Z,10.43
2018-11-27T20:15:30.436Z,11.37
2018-11-27T20:17:58.914Z,11.43
2018-11-27T20:20:28.320Z,11.40
2018-11-27T20:22:57.946Z,10.77
2018-11-27T20:25:26.501Z,11.87
2018-11-27T20:27:54.968Z,11.40
2018-11-27T20:30:28.501Z,12.83
2018-11-27T20:33:00.603Z,10.93
2018-11-27T20:35:29.928Z,11.60
2018-11-27T20:37:59.408Z,11.30
2018-11-27T20:40:28.192Z,11.00
2018-11-27T20:42:56.721Z,11.63
2018-11-27T20:45:26.093Z,11.87
2018-11-27T20:47:59.383Z,11.97
2018-11-27T20:50:27.846Z,12.90
2018-11-27T20:52:56.246Z,13.40
2018-11-27T20:55:24.768Z,13.07
2018-11-27T20:57:55.718Z,13.33
2018-11-27T21:00:26.046Z,13.70
2018-11-27T21:02:58.010Z,13.33
2018-11-27T21:05:26.551Z,12.70
2018-11-27T21:07:54.981Z,12.83
2018-11-27T21:10:23.607Z,13.67
2018-11-27T21:12:52.389Z,13.97
2018-11-27T21:15:20.970Z,16.57
2018-11-27T21:17:49.482Z,15.07
2018-11-27T21:20:19.475Z,14.27
2018-11-27T21:22:47.118Z,15.03
2018-11-27T21:26:22.381Z,14.83
2018-11-27T21:28:50.908Z,15.20
2018-11-27T21:31:24.144Z,14.67
2018-11-27T21:33:47.785Z,12.97
2018-11-27T21:36:16.285Z,12.93
2018-11-27T21:38:44.829Z,13.83
2018-11-27T21:41:13.354Z,14.03
2018-11-27T21:43:41.838Z,12.60
2018-11-27T21:46:10.394Z,11.97
2018-11-27T21:48:45.125Z,12.73
2018-11-27T21:51:13.608Z,13.47
2018-11-27T21:53:42.167Z,13.33
2018-11-27T21:56:10.715Z,12.63
2018-11-27T21:58:39.107Z,12.43
2018-11-27T22:01:07.594Z,13.10
2018-11-27T22:03:36.122Z,12.53
2018-11-27T22:06:04.947Z,13.77
2018-11-27T22:08:33.445Z,11.83
2018-11-27T22:11:02.038Z,13.23
2018-11-27T22:13:30.496Z,12.97
2018-11-27T22:15:58.986Z,12.40
2018-11-27T22:18:27.654Z,12.47
2018-11-27T22:20:56.093Z,13.07
2018-11-27T22:23:24.523Z,13.33
2018-11-27T22:25:53.398Z,13.93
2018-11-27T22:28:21.907Z,13.20
2018-11-27T22:30:56.908Z,13.50
2018-11-27T22:33:25.392Z,14.77
2018-11-27T22:35:54.262Z,12.83
2018-11-27T22:38:22.785Z,13.43
2018-11-27T22:40:51.249Z,14.43
2018-11-27T22:43:20.093Z,13.40
2018-11-27T22:45:48.638Z,13.80
2018-11-27T22:48:17.168Z,14.77
2018-11-27T22:50:45.817Z,15.03
2018-11-27T22:53:14.329Z,14.53
2018-11-27T22:55:42.939Z,15.13
2018-11-27T22:58:11.397Z,14.60
2018-11-27T23:00:45.312Z,14.73
2018-11-27T23:03:13.777Z,15.10
2018-11-27T23:05:42.322Z,13.87
2018-11-27T23:08:10.773Z,13.73
2018-11-27T23:10:40.869Z,15.70
2018-11-27T23:13:09.364Z,13.67
2018-11-27T23:15:37.917Z,12.20
2018-11-27T23:18:06.921Z,12.97
2018-11-27T23:20:35.500Z,13.23
2018-11-27T23:23:04.069Z,13.67
2018-11-27T23:25:32.613Z,13.80
2018-11-27T23:28:01.136Z,12.90
2018-11-27T23:30:29.618Z,13.67
2018-11-27T23:32:58.145Z,12.97
2018-11-27T23:35:26.637Z,14.00
2018-11-27T23:37:55.122Z,14.93
2018-11-27T23:40:23.743Z,15.07
2018-11-27T23:42:52.263Z,14.73
2018-11-27T23:45:23.505Z,15.07
2018-11-27T23:47:52.034Z,16.00
2018-11-27T23:50:21.441Z,15.73
2018-11-27T23:52:49.915Z,15.43
2018-11-27T23:55:19.098Z,15.57
2018-11-27T23:57:47.901Z,15.27
